sensor_id;sensor_type;location;lat;lon;timestamp;temperature;humidity
6496;DHT22;3281;47.658;9.166;2022-07-22T00:00:37;19.40;70.20
6496;DHT22;3281;47.658;9.166;2022-07-22T00:03:04;19.40;69.90
6496;DHT22;3281;47.658;9.166;2022-07-22T00:05:30;19.40;71.50
6496;DHT22;3281;47.658;9.166;2022-07-22T00:07:59;19.40;69.20
6496;DHT22;3281;47.658;9.166;2022-07-22T00:10:26;19.40;70.60
6496;DHT22;3281;47.658;9.166;2022-07-22T00:12:52;19.50;78.70
6496;DHT22;3281;47.658;9.166;2022-07-22T00:15:19;19.50;73.80
6496;DHT22;3281;47.658;9.166;2022-07-22T00:17:46;19.40;78.70
6496;DHT22;3281;47.658;9.166;2022-07-22T00:20:13;19.40;77.10
6496;DHT22;3281;47.658;9.166;2022-07-22T00:22:40;19.30;77.80
6496;DHT22;3281;47.658;9.166;2022-07-22T00:25:08;19.30;75.80
6496;DHT22;3281;47.658;9.166;2022-07-22T00:27:35;19.30;76.40
6496;DHT22;3281;47.658;9.166;2022-07-22T00:30:02;19.20;75.20
6496;DHT22;3281;47.658;9.166;2022-07-22T00:32:29;19.20;76.80
6496;DHT22;3281;47.658;9.166;2022-07-22T00:34:56;19.20;76.50
6496;DHT22;3281;47.658;9.166;2022-07-22T00:37:23;19.20;77.30
6496;DHT22;3281;47.658;9.166;2022-07-22T00:39:50;19.20;73.60
6496;DHT22;3281;47.658;9.166;2022-07-22T00:42:19;19.20;76.30
6496;DHT22;3281;47.658;9.166;2022-07-22T00:44:45;19.20;82.60
6496;DHT22;3281;47.658;9.166;2022-07-22T00:47:12;19.10;78.30
6496;DHT22;3281;47.658;9.166;2022-07-22T00:49:39;19.10;84.20
6496;DHT22;3281;47.658;9.166;2022-07-22T00:52:06;19.10;84.10
6496;DHT22;3281;47.658;9.166;2022-07-22T00:54:33;19.10;84.10
6496;DHT22;3281;47.658;9.166;2022-07-22T00:57:00;19.10;83.40
6496;DHT22;3281;47.658;9.166;2022-07-22T00:59:28;19.10;82.70
6496;DHT22;3281;47.658;9.166;2022-07-22T01:01:55;19.20;86.90
6496;DHT22;3281;47.658;9.166;2022-07-22T01:04:22;19.10;84.40
6496;DHT22;3281;47.658;9.166;2022-07-22T01:06:49;19.00;86.60
6496;DHT22;3281;47.658;9.166;2022-07-22T01:09:16;19.00;88.90
6496;DHT22;3281;47.658;9.166;2022-07-22T01:11:42;19.00;87.20
6496;DHT22;3281;47.658;9.166;2022-07-22T01:14:09;18.90;87.80
6496;DHT22;3281;47.658;9.166;2022-07-22T01:16:37;18.90;87.90
6496;DHT22;3281;47.658;9.166;2022-07-22T01:19:04;18.90;91.80
6496;DHT22;3281;47.658;9.166;2022-07-22T01:21:33;18.90;93.20
6496;DHT22;3281;47.658;9.166;2022-07-22T01:23:59;18.90;94.40
6496;DHT22;3281;47.658;9.166;2022-07-22T01:26:26;18.80;92.30
6496;DHT22;3281;47.658;9.166;2022-07-22T01:28:53;18.90;93.20
6496;DHT22;3281;47.658;9.166;2022-07-22T01:31:20;18.80;93.00
6496;DHT22;3281;47.658;9.166;2022-07-22T01:33:47;18.80;93.60
6496;DHT22;3281;47.658;9.166;2022-07-22T01:36:13;18.90;94.90
6496;DHT22;3281;47.658;9.166;2022-07-22T01:38:42;18.90;94.80
6496;DHT22;3281;47.658;9.166;2022-07-22T01:41:08;18.80;95.20
6496;DHT22;3281;47.658;9.166;2022-07-22T01:43:35;18.90;95.60
6496;DHT22;3281;47.658;9.166;2022-07-22T01:46:02;18.80;97.00
6496;DHT22;3281;47.658;9.166;2022-07-22T01:48:29;18.80;98.60
6496;DHT22;3281;47.658;9.166;2022-07-22T01:50:56;18.80;99.70
6496;DHT22;3281;47.658;9.166;2022-07-22T01:53:23;18.80;99.40
6496;DHT22;3281;47.658;9.166;2022-07-22T01:55:51;18.70;99.90
6496;DHT22;3281;47.658;9.166;2022-07-22T01:58:18;18.70;99.90
6496;DHT22;3281;47.658;9.166;2022-07-22T02:00:46;18.70;99.90
6496;DHT22;3281;47.658;9.166;2022-07-22T02:03:13;18.70;99.90
6496;DHT22;3281;47.658;9.166;2022-07-22T02:05:40;18.70;99.90
6496;DHT22;3281;47.658;9.166;2022-07-22T02:08:09;18.70;99.90
6496;DHT22;3281;47.658;9.166;2022-07-22T02:10:37;18.60;99.90
6496;DHT22;3281;47.658;9.166;2022-07-22T02:13:05;18.60;99.90
6496;DHT22;3281;47.658;9.166;2022-07-22T02:15:32;18.70;99.90
6496;DHT22;3281;47.658;9.166;2022-07-22T02:17:59;18.60;99.90
6496;DHT22;3281;47.658;9.166;2022-07-22T02:20:26;18.60;99.90
6496;DHT22;3281;47.658;9.166;2022-07-22T02:22:53;18.60;99.90
6496;DHT22;3281;47.658;9.166;2022-07-22T02:25:19;18.60;99.90
6496;DHT22;3281;47.658;9.166;2022-07-22T02:27:46;18.60;99.90
6496;DHT22;3281;47.658;9.166;2022-07-22T02:30:15;18.70;99.90
6496;DHT22;3281;47.658;9.166;2022-07-22T02:32:41;18.70;99.90
6496;DHT22;3281;47.658;9.166;2022-07-22T02:35:08;18.60;99.90
6496;DHT22;3281;47.658;9.166;2022-07-22T02:37:36;18.60;99.90
6496;DHT22;3281;47.658;9.166;2022-07-22T02:40:05;18.60;99.90
6496;DHT22;3281;47.658;9.166;2022-07-22T02:42:33;18.60;99.90
6496;DHT22;3281;47.658;9.166;2022-07-22T02:45:00;18.50;99.90
6496;DHT22;3281;47.658;9.166;2022-07-22T02:47:28;18.40;99.90
6496;DHT22;3281;47.658;9.166;2022-07-22T02:49:55;18.40;99.90
6496;DHT22;3281;47.658;9.166;2022-07-22T02:52:22;18.50;99.90
6496;DHT22;3281;47.658;9.166;2022-07-22T02:54:49;18.40;99.90
6496;DHT22;3281;47.658;9.166;2022-07-22T02:57:15;18.40;99.90
6496;DHT22;3281;47.658;9.166;2022-07-22T02:59:43;18.40;99.90
6496;DHT22;3281;47.658;9.166;2022-07-22T03:02:09;18.50;99.90
6496;DHT22;3281;47.658;9.166;2022-07-22T03:04:37;18.40;99.90
6496;DHT22;3281;47.658;9.166;2022-07-22T03:07:04;18.40;99.90
6496;DHT22;3281;47.658;9.166;2022-07-22T03:09:31;18.40;99.90
6496;DHT22;3281;47.658;9.166;2022-07-22T03:11:58;18.30;99.90
6496;DHT22;3281;47.658;9.166;2022-07-22T03:14:25;18.40;99.90
6496;DHT22;3281;47.658;9.166;2022-07-22T03:16:52;18.30;99.90
6496;DHT22;3281;47.658;9.166;2022-07-22T03:19:19;18.40;99.90
6496;DHT22;3281;47.658;9.166;2022-07-22T03:21:47;18.40;99.90
6496;DHT22;3281;47.658;9.166;2022-07-22T03:24:14;18.30;99.90
6496;DHT22;3281;47.658;9.166;2022-07-22T03:26:40;18.30;99.90
6496;DHT22;3281;47.658;9.166;2022-07-22T03:29:07;18.30;99.90
6496;DHT22;3281;47.658;9.166;2022-07-22T03:31:34;18.30;99.90
6496;DHT22;3281;47.658;9.166;2022-07-22T03:34:01;18.30;99.90
6496;DHT22;3281;47.658;9.166;2022-07-22T03:36:28;18.20;99.90
6496;DHT22;3281;47.658;9.166;2022-07-22T03:38:56;18.20;99.90
6496;DHT22;3281;47.658;9.166;2022-07-22T03:41:23;18.20;99.90
6496;DHT22;3281;47.658;9.166;2022-07-22T03:43:50;18.20;99.90
6496;DHT22;3281;47.658;9.166;2022-07-22T03:46:17;18.20;99.90
6496;DHT22;3281;47.658;9.166;2022-07-22T03:48:43;18.10;99.90
6496;DHT22;3281;47.658;9.166;2022-07-22T03:51:10;18.10;99.90
6496;DHT22;3281;47.658;9.166;2022-07-22T03:53:37;18.10;99.90
6496;DHT22;3281;47.658;9.166;2022-07-22T03:56:06;18.10;99.90
6496;DHT22;3281;47.658;9.166;2022-07-22T03:58:33;18.10;99.90
6496;DHT22;3281;47.658;9.166;2022-07-22T04:01:00;18.10;99.90
6496;DHT22;3281;47.658;9.166;2022-07-22T04:03:27;18.20;99.90
6496;DHT22;3281;47.658;9.166;2022-07-22T04:05:54;18.10;99.90
6496;DHT22;3281;47.658;9.166;2022-07-22T04:08:20;18.10;99.90
6496;DHT22;3281;47.658;9.166;2022-07-22T04:10:47;18.00;99.90
6496;DHT22;3281;47.658;9.166;2022-07-22T04:13:15;18.20;99.90
6496;DHT22;3281;47.658;9.166;2022-07-22T04:15:42;18.20;99.90
6496;DHT22;3281;47.658;9.166;2022-07-22T04:18:09;18.10;99.90
6496;DHT22;3281;47.658;9.166;2022-07-22T04:20:35;18.10;99.90
6496;DHT22;3281;47.658;9.166;2022-07-22T04:23:02;18.20;99.90
6496;DHT22;3281;47.658;9.166;2022-07-22T04:25:29;18.10;99.90
6496;DHT22;3281;47.658;9.166;2022-07-22T04:27:56;18.20;99.90
6496;DHT22;3281;47.658;9.166;2022-07-22T04:30:24;18.30;99.90
6496;DHT22;3281;47.658;9.166;2022-07-22T04:32:51;18.30;99.90
6496;DHT22;3281;47.658;9.166;2022-07-22T04:35:17;18.30;99.90
6496;DHT22;3281;47.658;9.166;2022-07-22T04:37:44;18.40;99.90
6496;DHT22;3281;47.658;9.166;2022-07-22T04:40:12;18.40;99.90
6496;DHT22;3281;47.658;9.166;2022-07-22T04:42:39;18.40;99.90
6496;DHT22;3281;47.658;9.166;2022-07-22T04:45:06;18.40;99.90
6496;DHT22;3281;47.658;9.166;2022-07-22T04:47:34;18.50;99.90
6496;DHT22;3281;47.658;9.166;2022-07-22T04:50:01;18.50;99.90
6496;DHT22;3281;47.658;9.166;2022-07-22T04:52:28;18.50;99.90
6496;DHT22;3281;47.658;9.166;2022-07-22T04:54:54;18.60;99.90
6496;DHT22;3281;47.658;9.166;2022-07-22T04:57:24;18.60;99.90
6496;DHT22;3281;47.658;9.166;2022-07-22T04:59:51;18.70;99.90
6496;DHT22;3281;47.658;9.166;2022-07-22T05:02:17;18.70;99.90
6496;DHT22;3281;47.658;9.166;2022-07-22T05:04:46;18.80;99.90
6496;DHT22;3281;47.658;9.166;2022-07-22T05:07:12;18.80;99.90
6496;DHT22;3281;47.658;9.166;2022-07-22T05:09:39;18.90;99.90
6496;DHT22;3281;47.658;9.166;2022-07-22T05:12:06;18.90;99.90
6496;DHT22;3281;47.658;9.166;2022-07-22T05:14:33;19.00;99.90
6496;DHT22;3281;47.658;9.166;2022-07-22T05:17:00;19.00;99.90
6496;DHT22;3281;47.658;9.166;2022-07-22T05:19:27;19.10;99.90
6496;DHT22;3281;47.658;9.166;2022-07-22T05:21:55;19.20;99.90
6496;DHT22;3281;47.658;9.166;2022-07-22T05:24:21;19.20;99.90
6496;DHT22;3281;47.658;9.166;2022-07-22T05:26:48;19.20;99.90
6496;DHT22;3281;47.658;9.166;2022-07-22T05:29:15;19.20;99.90
6496;DHT22;3281;47.658;9.166;2022-07-22T05:31:42;19.30;99.90
6496;DHT22;3281;47.658;9.166;2022-07-22T05:34:08;19.30;99.90
6496;DHT22;3281;47.658;9.166;2022-07-22T05:36:35;19.40;99.90
6496;DHT22;3281;47.658;9.166;2022-07-22T05:39:03;19.40;99.90
6496;DHT22;3281;47.658;9.166;2022-07-22T05:41:30;19.50;99.90
6496;DHT22;3281;47.658;9.166;2022-07-22T05:43:57;19.60;99.90
6496;DHT22;3281;47.658;9.166;2022-07-22T05:46:24;19.60;99.90
6496;DHT22;3281;47.658;9.166;2022-07-22T05:48:51;19.70;99.90
6496;DHT22;3281;47.658;9.166;2022-07-22T05:51:17;19.70;99.90
6496;DHT22;3281;47.658;9.166;2022-07-22T05:53:44;19.80;99.90
6496;DHT22;3281;47.658;9.166;2022-07-22T05:56:13;19.80;99.90
6496;DHT22;3281;47.658;9.166;2022-07-22T05:58:40;19.80;99.90
6496;DHT22;3281;47.658;9.166;2022-07-22T06:01:09;19.90;99.90
6496;DHT22;3281;47.658;9.166;2022-07-22T06:03:36;20.00;99.90
6496;DHT22;3281;47.658;9.166;2022-07-22T06:06:03;20.00;99.90
6496;DHT22;3281;47.658;9.166;2022-07-22T06:08:31;20.00;99.90
6496;DHT22;3281;47.658;9.166;2022-07-22T06:10:58;20.10;99.90
6496;DHT22;3281;47.658;9.166;2022-07-22T06:13:27;20.10;99.90
6496;DHT22;3281;47.658;9.166;2022-07-22T06:15:53;20.20;99.90
6496;DHT22;3281;47.658;9.166;2022-07-22T06:18:20;20.30;99.90
6496;DHT22;3281;47.658;9.166;2022-07-22T06:20:47;20.30;99.90
6496;DHT22;3281;47.658;9.166;2022-07-22T06:23:14;20.30;99.90
6496;DHT22;3281;47.658;9.166;2022-07-22T06:25:41;20.40;99.90
6496;DHT22;3281;47.658;9.166;2022-07-22T06:28:08;20.40;99.90
6496;DHT22;3281;47.658;9.166;2022-07-22T06:30:37;20.50;99.90
6496;DHT22;3281;47.658;9.166;2022-07-22T06:33:04;20.50;99.90
6496;DHT22;3281;47.658;9.166;2022-07-22T06:35:31;20.60;99.90
6496;DHT22;3281;47.658;9.166;2022-07-22T06:37:58;20.60;99.90
6496;DHT22;3281;47.658;9.166;2022-07-22T06:40:24;20.70;99.90
6496;DHT22;3281;47.658;9.166;2022-07-22T06:42:51;20.70;91.50
6496;DHT22;3281;47.658;9.166;2022-07-22T06:45:18;20.80;86.50
6496;DHT22;3281;47.658;9.166;2022-07-22T06:47:46;20.90;80.10
6496;DHT22;3281;47.658;9.166;2022-07-22T06:50:13;21.00;89.70
6496;DHT22;3281;47.658;9.166;2022-07-22T06:52:40;21.00;86.10
6496;DHT22;3281;47.658;9.166;2022-07-22T06:55:08;21.10;67.90
6496;DHT22;3281;47.658;9.166;2022-07-22T06:57:36;21.20;66.20
6496;DHT22;3281;47.658;9.166;2022-07-22T07:00:04;21.20;63.80
6496;DHT22;3281;47.658;9.166;2022-07-22T07:02:31;21.30;70.50
6496;DHT22;3281;47.658;9.166;2022-07-22T07:04:59;21.20;48.70
6496;DHT22;3281;47.658;9.166;2022-07-22T07:07:26;21.50;51.70
6496;DHT22;3281;47.658;9.166;2022-07-22T07:09:53;21.40;51.60
6496;DHT22;3281;47.658;9.166;2022-07-22T07:12:19;21.40;39.80
6496;DHT22;3281;47.658;9.166;2022-07-22T07:14:46;21.50;37.20
6496;DHT22;3281;47.658;9.166;2022-07-22T07:17:13;21.60;38.40
6496;DHT22;3281;47.658;9.166;2022-07-22T07:19:40;21.50;35.70
6496;DHT22;3281;47.658;9.166;2022-07-22T07:22:08;21.80;46.20
6496;DHT22;3281;47.658;9.166;2022-07-22T07:24:35;21.60;26.90
6496;DHT22;3281;47.658;9.166;2022-07-22T07:27:02;21.60;34.30
6496;DHT22;3281;47.658;9.166;2022-07-22T07:29:29;21.60;28.90
6496;DHT22;3281;47.658;9.166;2022-07-22T07:31:56;21.70;35.30
6496;DHT22;3281;47.658;9.166;2022-07-22T07:34:23;21.70;25.50
6496;DHT22;3281;47.658;9.166;2022-07-22T07:36:49;21.80;16.50
6496;DHT22;3281;47.658;9.166;2022-07-22T07:39:17;21.90;21.50
6496;DHT22;3281;47.658;9.166;2022-07-22T07:41:44;21.90;13.80
6496;DHT22;3281;47.658;9.166;2022-07-22T07:44:11;21.90;10.60
6496;DHT22;3281;47.658;9.166;2022-07-22T07:46:38;21.90;12.20
6496;DHT22;3281;47.658;9.166;2022-07-22T07:49:05;22.00;7.60
6496;DHT22;3281;47.658;9.166;2022-07-22T07:51:31;22.00;7.90
6496;DHT22;3281;47.658;9.166;2022-07-22T07:53:58;22.10;9.10
6496;DHT22;3281;47.658;9.166;2022-07-22T07:56:26;22.10;7.40
6496;DHT22;3281;47.658;9.166;2022-07-22T07:58:53;22.10;3.30
6496;DHT22;3281;47.658;9.166;2022-07-22T08:01:20;22.20;1.00
6496;DHT22;3281;47.658;9.166;2022-07-22T08:03:48;22.30;1.00
6496;DHT22;3281;47.658;9.166;2022-07-22T08:06:14;22.20;1.00
6496;DHT22;3281;47.658;9.166;2022-07-22T08:08:41;22.30;1.00
6496;DHT22;3281;47.658;9.166;2022-07-22T08:11:08;22.40;1.00
6496;DHT22;3281;47.658;9.166;2022-07-22T08:13:36;22.40;1.00
6496;DHT22;3281;47.658;9.166;2022-07-22T08:16:03;22.40;1.00
6496;DHT22;3281;47.658;9.166;2022-07-22T08:18:30;22.50;1.00
6496;DHT22;3281;47.658;9.166;2022-07-22T08:20:57;22.50;1.00
6496;DHT22;3281;47.658;9.166;2022-07-22T08:23:24;22.60;1.00
6496;DHT22;3281;47.658;9.166;2022-07-22T08:25:51;22.60;1.00
6496;DHT22;3281;47.658;9.166;2022-07-22T08:28:17;22.60;1.00
6496;DHT22;3281;47.658;9.166;2022-07-22T08:30:46;22.70;1.00
6496;DHT22;3281;47.658;9.166;2022-07-22T08:33:12;22.90;1.00
6496;DHT22;3281;47.658;9.166;2022-07-22T08:35:39;22.80;1.00
6496;DHT22;3281;47.658;9.166;2022-07-22T08:38:06;22.80;1.00
6496;DHT22;3281;47.658;9.166;2022-07-22T08:40:33;22.90;1.00
6496;DHT22;3281;47.658;9.166;2022-07-22T08:43:00;23.00;1.00
6496;DHT22;3281;47.658;9.166;2022-07-22T08:45:28;23.00;1.00
6496;DHT22;3281;47.658;9.166;2022-07-22T08:47:57;23.10;1.00
6496;DHT22;3281;47.658;9.166;2022-07-22T08:50:28;23.10;1.00
6496;DHT22;3281;47.658;9.166;2022-07-22T08:52:55;23.20;1.00
6496;DHT22;3281;47.658;9.166;2022-07-22T08:55:22;23.30;1.00
6496;DHT22;3281;47.658;9.166;2022-07-22T08:57:49;23.40;1.00
6496;DHT22;3281;47.658;9.166;2022-07-22T09:00:19;23.40;1.00
6496;DHT22;3281;47.658;9.166;2022-07-22T09:02:47;23.40;1.00
6496;DHT22;3281;47.658;9.166;2022-07-22T09:05:16;23.50;1.00
6496;DHT22;3281;47.658;9.166;2022-07-22T09:07:46;23.50;1.00
6496;DHT22;3281;47.658;9.166;2022-07-22T09:10:15;23.60;1.00
6496;DHT22;3281;47.658;9.166;2022-07-22T09:12:55;23.60;1.00
6496;DHT22;3281;47.658;9.166;2022-07-22T09:15:29;23.60;1.00
6496;DHT22;3281;47.658;9.166;2022-07-22T09:17:57;23.70;1.00
6496;DHT22;3281;47.658;9.166;2022-07-22T09:20:26;23.90;1.00
6496;DHT22;3281;47.658;9.166;2022-07-22T09:22:53;23.90;1.00
6496;DHT22;3281;47.658;9.166;2022-07-22T09:25:28;24.00;1.00
6496;DHT22;3281;47.658;9.166;2022-07-22T09:28:08;24.00;1.00
6496;DHT22;3281;47.658;9.166;2022-07-22T09:30:38;24.20;1.00
6496;DHT22;3281;47.658;9.166;2022-07-22T09:33:07;24.20;1.00
6496;DHT22;3281;47.658;9.166;2022-07-22T09:35:35;24.30;1.00
6496;DHT22;3281;47.658;9.166;2022-07-22T09:38:04;24.30;1.00
6496;DHT22;3281;47.658;9.166;2022-07-22T09:40:32;24.40;1.00
6496;DHT22;3281;47.658;9.166;2022-07-22T09:43:02;24.50;1.00
6496;DHT22;3281;47.658;9.166;2022-07-22T09:45:30;24.50;1.00
6496;DHT22;3281;47.658;9.166;2022-07-22T09:47:59;24.60;1.00
6496;DHT22;3281;47.658;9.166;2022-07-22T09:50:28;24.70;1.00
6496;DHT22;3281;47.658;9.166;2022-07-22T09:52:58;24.80;1.00
6496;DHT22;3281;47.658;9.166;2022-07-22T09:55:26;24.90;1.00
6496;DHT22;3281;47.658;9.166;2022-07-22T09:57:54;25.10;1.00
6496;DHT22;3281;47.658;9.166;2022-07-22T10:00:23;25.30;1.00
6496;DHT22;3281;47.658;9.166;2022-07-22T10:02:52;25.50;1.00
6496;DHT22;3281;47.658;9.166;2022-07-22T10:05:21;25.60;1.00
6496;DHT22;3281;47.658;9.166;2022-07-22T10:07:48;25.90;1.00
6496;DHT22;3281;47.658;9.166;2022-07-22T10:10:18;25.90;1.00
6496;DHT22;3281;47.658;9.166;2022-07-22T10:12:48;26.10;1.00
6496;DHT22;3281;47.658;9.166;2022-07-22T10:15:15;26.30;1.00
6496;DHT22;3281;47.658;9.166;2022-07-22T10:17:44;26.30;1.00
6496;DHT22;3281;47.658;9.166;2022-07-22T10:20:11;26.30;1.00
6496;DHT22;3281;47.658;9.166;2022-07-22T10:22:48;26.40;1.00
6496;DHT22;3281;47.658;9.166;2022-07-22T10:25:18;26.50;1.00
6496;DHT22;3281;47.658;9.166;2022-07-22T10:27:47;26.60;1.00
6496;DHT22;3281;47.658;9.166;2022-07-22T10:30:15;26.60;1.00
6496;DHT22;3281;47.658;9.166;2022-07-22T10:32:42;26.70;1.00
6496;DHT22;3281;47.658;9.166;2022-07-22T10:35:25;26.70;1.00
6496;DHT22;3281;47.658;9.166;2022-07-22T10:37:55;26.60;1.00
6496;DHT22;3281;47.658;9.166;2022-07-22T10:40:25;26.60;1.00
6496;DHT22;3281;47.658;9.166;2022-07-22T10:43:10;26.60;1.00
6496;DHT22;3281;47.658;9.166;2022-07-22T10:45:44;26.70;1.00
6496;DHT22;3281;47.658;9.166;2022-07-22T10:48:13;26.70;1.00
6496;DHT22;3281;47.658;9.166;2022-07-22T10:51:05;26.60;1.00
6496;DHT22;3281;47.658;9.166;2022-07-22T10:53:46;26.80;1.00
6496;DHT22;3281;47.658;9.166;2022-07-22T10:56:17;26.90;1.00
6496;DHT22;3281;47.658;9.166;2022-07-22T10:58:50;27.20;1.00
6496;DHT22;3281;47.658;9.166;2022-07-22T11:01:21;27.30;1.00
6496;DHT22;3281;47.658;9.166;2022-07-22T11:03:49;27.40;1.00
6496;DHT22;3281;47.658;9.166;2022-07-22T11:06:22;27.40;1.00
6496;DHT22;3281;47.658;9.166;2022-07-22T11:08:51;27.50;1.00
6496;DHT22;3281;47.658;9.166;2022-07-22T11:11:31;27.50;1.00
6496;DHT22;3281;47.658;9.166;2022-07-22T11:13:59;27.60;1.00
6496;DHT22;3281;47.658;9.166;2022-07-22T11:16:27;27.70;1.00
6496;DHT22;3281;47.658;9.166;2022-07-22T11:18:56;27.90;1.00
6496;DHT22;3281;47.658;9.166;2022-07-22T11:21:26;28.20;1.00
6496;DHT22;3281;47.658;9.166;2022-07-22T11:23:55;28.40;1.00
6496;DHT22;3281;47.658;9.166;2022-07-22T11:26:26;28.40;1.00
6496;DHT22;3281;47.658;9.166;2022-07-22T11:28:58;28.60;1.00
6496;DHT22;3281;47.658;9.166;2022-07-22T11:31:27;28.60;1.00
6496;DHT22;3281;47.658;9.166;2022-07-22T11:34:08;28.70;1.00
6496;DHT22;3281;47.658;9.166;2022-07-22T11:36:37;28.50;1.00
6496;DHT22;3281;47.658;9.166;2022-07-22T11:39:04;28.30;1.00
6496;DHT22;3281;47.658;9.166;2022-07-22T11:41:32;27.90;1.00
6496;DHT22;3281;47.658;9.166;2022-07-22T11:44:00;27.70;1.00
6496;DHT22;3281;47.658;9.166;2022-07-22T11:46:28;27.50;1.00
6496;DHT22;3281;47.658;9.166;2022-07-22T11:49:00;27.40;1.00
6496;DHT22;3281;47.658;9.166;2022-07-22T11:51:29;27.20;1.00
6496;DHT22;3281;47.658;9.166;2022-07-22T11:53:56;27.10;1.00
6496;DHT22;3281;47.658;9.166;2022-07-22T11:56:24;26.90;1.00
6496;DHT22;3281;47.658;9.166;2022-07-22T11:58:53;26.90;1.00
6496;DHT22;3281;47.658;9.166;2022-07-22T12:01:23;26.80;1.00
6496;DHT22;3281;47.658;9.166;2022-07-22T12:03:51;26.70;1.00
6496;DHT22;3281;47.658;9.166;2022-07-22T12:06:20;26.80;1.00
6496;DHT22;3281;47.658;9.166;2022-07-22T12:08:48;26.80;1.00
6496;DHT22;3281;47.658;9.166;2022-07-22T12:11:17;26.80;1.00
6496;DHT22;3281;47.658;9.166;2022-07-22T12:13:45;26.80;1.00
6496;DHT22;3281;47.658;9.166;2022-07-22T12:16:25;26.80;1.00
6496;DHT22;3281;47.658;9.166;2022-07-22T12:18:55;26.80;1.00
6496;DHT22;3281;47.658;9.166;2022-07-22T12:21:24;26.80;1.00
6496;DHT22;3281;47.658;9.166;2022-07-22T12:23:52;26.90;1.00
6496;DHT22;3281;47.658;9.166;2022-07-22T12:26:19;27.00;1.00
6496;DHT22;3281;47.658;9.166;2022-07-22T12:29:17;26.90;1.00
6496;DHT22;3281;47.658;9.166;2022-07-22T12:31:46;26.80;1.00
6496;DHT22;3281;47.658;9.166;2022-07-22T12:34:14;26.80;1.00
6496;DHT22;3281;47.658;9.166;2022-07-22T12:36:45;26.80;1.00
6496;DHT22;3281;47.658;9.166;2022-07-22T12:39:17;26.80;1.00
6496;DHT22;3281;47.658;9.166;2022-07-22T12:41:47;26.80;1.00
6496;DHT22;3281;47.658;9.166;2022-07-22T12:44:18;26.80;1.00
6496;DHT22;3281;47.658;9.166;2022-07-22T12:46:48;26.90;1.00
6496;DHT22;3281;47.658;9.166;2022-07-22T12:49:17;26.80;1.00
6496;DHT22;3281;47.658;9.166;2022-07-22T12:52:05;26.80;1.00
6496;DHT22;3281;47.658;9.166;2022-07-22T12:54:33;26.80;1.00
6496;DHT22;3281;47.658;9.166;2022-07-22T12:57:00;27.00;1.00
6496;DHT22;3281;47.658;9.166;2022-07-22T12:59:26;27.00;1.00
6496;DHT22;3281;47.658;9.166;2022-07-22T13:01:55;27.10;1.00
6496;DHT22;3281;47.658;9.166;2022-07-22T13:04:22;27.10;1.00
6496;DHT22;3281;47.658;9.166;2022-07-22T13:06:48;27.10;1.00
6496;DHT22;3281;47.658;9.166;2022-07-22T13:09:16;27.10;1.00
6496;DHT22;3281;47.658;9.166;2022-07-22T13:11:43;27.10;1.00
6496;DHT22;3281;47.658;9.166;2022-07-22T13:14:10;27.20;1.00
6496;DHT22;3281;47.658;9.166;2022-07-22T13:16:37;27.20;1.00
6496;DHT22;3281;47.658;9.166;2022-07-22T13:19:05;27.30;1.00
6496;DHT22;3281;47.658;9.166;2022-07-22T13:21:32;27.60;1.00
6496;DHT22;3281;47.658;9.166;2022-07-22T13:23:59;27.70;1.00
6496;DHT22;3281;47.658;9.166;2022-07-22T13:26:26;28.00;1.00
6496;DHT22;3281;47.658;9.166;2022-07-22T13:28:52;27.80;1.00
6496;DHT22;3281;47.658;9.166;2022-07-22T13:31:19;27.60;1.00
6496;DHT22;3281;47.658;9.166;2022-07-22T13:33:46;27.50;1.00
6496;DHT22;3281;47.658;9.166;2022-07-22T13:36:14;27.50;1.00
6496;DHT22;3281;47.658;9.166;2022-07-22T13:38:41;27.40;1.00
6496;DHT22;3281;47.658;9.166;2022-07-22T13:41:07;27.40;1.00
6496;DHT22;3281;47.658;9.166;2022-07-22T13:43:42;27.50;1.00
6496;DHT22;3281;47.658;9.166;2022-07-22T13:46:10;27.60;1.00
6496;DHT22;3281;47.658;9.166;2022-07-22T13:48:36;27.60;1.00
6496;DHT22;3281;47.658;9.166;2022-07-22T13:51:03;27.50;1.00
6496;DHT22;3281;47.658;9.166;2022-07-22T13:53:32;27.60;1.00
6496;DHT22;3281;47.658;9.166;2022-07-22T13:55:59;27.60;1.00
6496;DHT22;3281;47.658;9.166;2022-07-22T13:58:26;27.70;1.00
6496;DHT22;3281;47.658;9.166;2022-07-22T14:00:53;27.70;1.00
6496;DHT22;3281;47.658;9.166;2022-07-22T14:03:20;27.70;1.00
6496;DHT22;3281;47.658;9.166;2022-07-22T14:05:47;27.70;1.00
6496;DHT22;3281;47.658;9.166;2022-07-22T14:08:14;27.70;1.00
6496;DHT22;3281;47.658;9.166;2022-07-22T14:10:43;27.80;1.00
6496;DHT22;3281;47.658;9.166;2022-07-22T14:13:10;27.70;1.00
6496;DHT22;3281;47.658;9.166;2022-07-22T14:15:37;27.80;1.00
6496;DHT22;3281;47.658;9.166;2022-07-22T14:18:04;27.80;1.00
6496;DHT22;3281;47.658;9.166;2022-07-22T14:20:32;27.70;1.00
6496;DHT22;3281;47.658;9.166;2022-07-22T14:22:59;27.60;1.00
6496;DHT22;3281;47.658;9.166;2022-07-22T14:25:27;27.70;1.00
6496;DHT22;3281;47.658;9.166;2022-07-22T14:27:55;27.70;1.00
6496;DHT22;3281;47.658;9.166;2022-07-22T14:30:22;27.70;1.00
6496;DHT22;3281;47.658;9.166;2022-07-22T14:32:48;27.60;1.00
6496;DHT22;3281;47.658;9.166;2022-07-22T14:35:16;27.60;1.00
6496;DHT22;3281;47.658;9.166;2022-07-22T14:37:42;27.60;1.00
6496;DHT22;3281;47.658;9.166;2022-07-22T14:40:10;27.70;1.00
6496;DHT22;3281;47.658;9.166;2022-07-22T14:42:37;27.80;1.00
6496;DHT22;3281;47.658;9.166;2022-07-22T14:45:07;27.80;1.00
6496;DHT22;3281;47.658;9.166;2022-07-22T14:47:35;27.80;1.00
6496;DHT22;3281;47.658;9.166;2022-07-22T14:50:02;27.70;1.00
6496;DHT22;3281;47.658;9.166;2022-07-22T14:52:29;27.70;1.00
6496;DHT22;3281;47.658;9.166;2022-07-22T14:54:56;27.70;1.00
6496;DHT22;3281;47.658;9.166;2022-07-22T14:57:23;27.80;1.00
6496;DHT22;3281;47.658;9.166;2022-07-22T14:59:50;27.80;1.00
6496;DHT22;3281;47.658;9.166;2022-07-22T15:02:18;27.70;1.00
6496;DHT22;3281;47.658;9.166;2022-07-22T15:04:46;27.70;1.00
6496;DHT22;3281;47.658;9.166;2022-07-22T15:07:12;27.80;1.00
6496;DHT22;3281;47.658;9.166;2022-07-22T15:09:39;27.80;1.00
6496;DHT22;3281;47.658;9.166;2022-07-22T15:12:06;27.70;1.00
6496;DHT22;3281;47.658;9.166;2022-07-22T15:14:33;27.60;1.00
6496;DHT22;3281;47.658;9.166;2022-07-22T15:16:59;27.90;1.00
6496;DHT22;3281;47.658;9.166;2022-07-22T15:19:27;27.90;1.00
6496;DHT22;3281;47.658;9.166;2022-07-22T15:21:54;27.80;1.00
6496;DHT22;3281;47.658;9.166;2022-07-22T15:24:21;27.90;1.00
6496;DHT22;3281;47.658;9.166;2022-07-22T15:26:48;27.80;1.00
6496;DHT22;3281;47.658;9.166;2022-07-22T15:29:15;27.80;1.00
6496;DHT22;3281;47.658;9.166;2022-07-22T15:31:42;27.70;1.00
6496;DHT22;3281;47.658;9.166;2022-07-22T15:34:09;27.70;1.00
6496;DHT22;3281;47.658;9.166;2022-07-22T15:36:37;27.60;1.00
6496;DHT22;3281;47.658;9.166;2022-07-22T15:39:04;27.60;1.00
6496;DHT22;3281;47.658;9.166;2022-07-22T15:41:31;27.50;1.00
6496;DHT22;3281;47.658;9.166;2022-07-22T15:44:01;27.50;1.00
6496;DHT22;3281;47.658;9.166;2022-07-22T15:46:28;27.40;1.00
6496;DHT22;3281;47.658;9.166;2022-07-22T15:48:54;27.40;1.00
6496;DHT22;3281;47.658;9.166;2022-07-22T15:51:21;27.40;1.00
6496;DHT22;3281;47.658;9.166;2022-07-22T15:53:49;27.40;1.00
6496;DHT22;3281;47.658;9.166;2022-07-22T15:56:16;27.30;1.00
6496;DHT22;3281;47.658;9.166;2022-07-22T15:58:44;27.20;1.00
6496;DHT22;3281;47.658;9.166;2022-07-22T16:01:28;27.20;1.00
6496;DHT22;3281;47.658;9.166;2022-07-22T16:03:55;27.20;1.00
6496;DHT22;3281;47.658;9.166;2022-07-22T16:06:22;27.20;1.00
6496;DHT22;3281;47.658;9.166;2022-07-22T16:08:50;27.20;1.00
6496;DHT22;3281;47.658;9.166;2022-07-22T16:11:17;27.10;1.00
6496;DHT22;3281;47.658;9.166;2022-07-22T16:13:43;27.10;1.00